sensor_id;sensor_type;location;lat;lon;timestamp;P1;durP1;ratioP1;P2;durP2;ratioP2
29162;SDS011;20331;53.144;8.208;2022-11-13T00:08:40;16.97;;;10.83;;
29162;SDS011;20331;53.144;8.208;2022-11-13T00:19:02;17.85;;;10.32;;
29162;SDS011;20331;53.144;8.208;2022-11-13T00:29:26;16.42;;;9.82;;
29162;SDS011;20331;53.144;8.208;2022-11-13T00:39:47;16.23;;;10.00;;
29162;SDS011;20331;53.144;8.208;2022-11-13T00:50:09;14.87;;;9.13;;
29162;SDS011;20331;53.144;8.208;2022-11-13T01:00:31;14.70;;;9.13;;
29162;SDS011;20331;53.144;8.208;2022-11-13T01:10:52;15.70;;;8.80;;
29162;SDS011;20331;53.144;8.208;2022-11-13T01:21:15;14.50;;;8.73;;
29162;SDS011;20331;53.144;8.208;2022-11-13T01:31:42;18.88;;;8.13;;
29162;SDS011;20331;53.144;8.208;2022-11-13T01:42:03;10.20;;;7.43;;
29162;SDS011;20331;53.144;8.208;2022-11-13T01:52:29;13.17;;;7.10;;
29162;SDS011;20331;53.144;8.208;2022-11-13T02:02:53;12.80;;;7.65;;
29162;SDS011;20331;53.144;8.208;2022-11-13T02:13:15;13.90;;;7.67;;
29162;SDS011;20331;53.144;8.208;2022-11-13T02:34:34;13.52;;;8.13;;
29162;SDS011;20331;53.144;8.208;2022-11-13T02:44:56;13.40;;;8.47;;
29162;SDS011;20331;53.144;8.208;2022-11-13T02:55:17;11.83;;;8.17;;
29162;SDS011;20331;53.144;8.208;2022-11-13T03:05:39;14.83;;;8.87;;
29162;SDS011;20331;53.144;8.208;2022-11-13T03:16:06;10.23;;;5.60;;
29162;SDS011;20331;53.144;8.208;2022-11-13T03:36:54;11.55;;;7.60;;
29162;SDS011;20331;53.144;8.208;2022-11-13T03:47:15;14.77;;;7.80;;
29162;SDS011;20331;53.144;8.208;2022-11-13T03:57:38;11.60;;;7.22;;
29162;SDS011;20331;53.144;8.208;2022-11-13T04:07:59;11.63;;;7.10;;
29162;SDS011;20331;53.144;8.208;2022-11-13T04:18:21;12.07;;;6.67;;
29162;SDS011;20331;53.144;8.208;2022-11-13T04:28:42;13.53;;;6.53;;
29162;SDS011;20331;53.144;8.208;2022-11-13T04:39:04;13.37;;;6.70;;
29162;SDS011;20331;53.144;8.208;2022-11-13T04:49:26;13.10;;;6.65;;
29162;SDS011;20331;53.144;8.208;2022-11-13T04:59:47;10.90;;;6.70;;
29162;SDS011;20331;53.144;8.208;2022-11-13T05:10:09;12.70;;;6.10;;
29162;SDS011;20331;53.144;8.208;2022-11-13T05:20:31;12.67;;;7.07;;
29162;SDS011;20331;53.144;8.208;2022-11-13T05:30:52;10.53;;;6.33;;
29162;SDS011;20331;53.144;8.208;2022-11-13T05:41:15;11.23;;;7.03;;
29162;SDS011;20331;53.144;8.208;2022-11-13T05:51:38;10.98;;;6.68;;
29162;SDS011;20331;53.144;8.208;2022-11-13T06:02:01;10.85;;;6.50;;
29162;SDS011;20331;53.144;8.208;2022-11-13T06:12:22;10.77;;;6.67;;
29162;SDS011;20331;53.144;8.208;2022-11-13T06:22:44;14.73;;;6.63;;
29162;SDS011;20331;53.144;8.208;2022-11-13T06:33:05;10.43;;;6.83;;
29162;SDS011;20331;53.144;8.208;2022-11-13T06:43:27;9.30;;;6.30;;
29162;SDS011;20331;53.144;8.208;2022-11-13T07:04:13;11.75;;;6.70;;
29162;SDS011;20331;53.144;8.208;2022-11-13T07:14:35;12.07;;;7.20;;
29162;SDS011;20331;53.144;8.208;2022-11-13T07:24:56;14.23;;;7.57;;
29162;SDS011;20331;53.144;8.208;2022-11-13T07:35:18;14.57;;;7.93;;
29162;SDS011;20331;53.144;8.208;2022-11-13T07:45:40;13.00;;;8.20;;
29162;SDS011;20331;53.144;8.208;2022-11-13T07:56:03;25.55;;;9.75;;
29162;SDS011;20331;53.144;8.208;2022-11-13T08:16:48;14.63;;;8.30;;
29162;SDS011;20331;53.144;8.208;2022-11-13T08:27:09;12.13;;;8.20;;
29162;SDS011;20331;53.144;8.208;2022-11-13T08:37:31;12.47;;;8.00;;
29162;SDS011;20331;53.144;8.208;2022-11-13T08:47:53;14.30;;;8.45;;
29162;SDS011;20331;53.144;8.208;2022-11-13T08:58:15;16.87;;;8.93;;
29162;SDS011;20331;53.144;8.208;2022-11-13T09:08:36;14.17;;;9.60;;
29162;SDS011;20331;53.144;8.208;2022-11-13T09:18:58;13.17;;;9.17;;
29162;SDS011;20331;53.144;8.208;2022-11-13T09:29:19;14.77;;;9.20;;
29162;SDS011;20331;53.144;8.208;2022-11-13T09:39:43;16.33;;;9.90;;
29162;SDS011;20331;53.144;8.208;2022-11-13T09:50:10;14.77;;;9.93;;
29162;SDS011;20331;53.144;8.208;2022-11-13T10:00:39;15.68;;;10.82;;
29162;SDS011;20331;53.144;8.208;2022-11-13T10:11:07;16.25;;;9.88;;
29162;SDS011;20331;53.144;8.208;2022-11-13T10:22:10;14.35;;;9.65;;
29162;SDS011;20331;53.144;8.208;2022-11-13T10:32:45;15.87;;;10.73;;
29162;SDS011;20331;53.144;8.208;2022-11-13T10:43:15;17.27;;;10.32;;
29162;SDS011;20331;53.144;8.208;2022-11-13T10:53:40;14.95;;;9.50;;
29162;SDS011;20331;53.144;8.208;2022-11-13T11:04:03;16.23;;;9.75;;
29162;SDS011;20331;53.144;8.208;2022-11-13T11:14:27;16.33;;;9.60;;
29162;SDS011;20331;53.144;8.208;2022-11-13T11:24:59;14.60;;;9.27;;
29162;SDS011;20331;53.144;8.208;2022-11-13T11:35:43;14.32;;;9.23;;
29162;SDS011;20331;53.144;8.208;2022-11-13T11:46:12;14.70;;;9.93;;
29162;SDS011;20331;53.144;8.208;2022-11-13T11:56:39;13.75;;;9.48;;
29162;SDS011;20331;53.144;8.208;2022-11-13T12:07:10;17.77;;;10.40;;
29162;SDS011;20331;53.144;8.208;2022-11-13T12:18:07;15.38;;;10.50;;
29162;SDS011;20331;53.144;8.208;2022-11-13T12:49:57;17.27;;;9.48;;
29162;SDS011;20331;53.144;8.208;2022-11-13T13:00:27;13.75;;;8.85;;
29162;SDS011;20331;53.144;8.208;2022-11-13T13:21:24;10.55;;;7.00;;
29162;SDS011;20331;53.144;8.208;2022-11-13T13:53:28;13.50;;;9.15;;
29162;SDS011;20331;53.144;8.208;2022-11-13T14:04:09;13.60;;;9.43;;
29162;SDS011;20331;53.144;8.208;2022-11-13T14:14:33;16.77;;;9.73;;
29162;SDS011;20331;53.144;8.208;2022-11-13T14:24:58;15.50;;;9.17;;
29162;SDS011;20331;53.144;8.208;2022-11-13T14:35:22;16.73;;;8.45;;
29162;SDS011;20331;53.144;8.208;2022-11-13T14:45:53;13.50;;;8.60;;
29162;SDS011;20331;53.144;8.208;2022-11-13T14:56:19;13.10;;;8.52;;
29162;SDS011;20331;53.144;8.208;2022-11-13T15:07:17;14.30;;;8.45;;
29162;SDS011;20331;53.144;8.208;2022-11-13T15:17:43;12.95;;;8.57;;
29162;SDS011;20331;53.144;8.208;2022-11-13T15:28:07;13.07;;;7.47;;
29162;SDS011;20331;53.144;8.208;2022-11-13T15:38:29;12.95;;;7.63;;
29162;SDS011;20331;53.144;8.208;2022-11-13T15:48:50;9.90;;;7.43;;
29162;SDS011;20331;53.144;8.208;2022-11-13T15:59:21;12.27;;;7.20;;
29162;SDS011;20331;53.144;8.208;2022-11-13T16:09:43;10.73;;;7.27;;
29162;SDS011;20331;53.144;8.208;2022-11-13T16:20:05;13.35;;;8.18;;
29162;SDS011;20331;53.144;8.208;2022-11-13T16:30:29;15.32;;;9.70;;
29162;SDS011;20331;53.144;8.208;2022-11-13T16:40:51;15.20;;;9.55;;
29162;SDS011;20331;53.144;8.208;2022-11-13T16:51:13;15.80;;;10.33;;
29162;SDS011;20331;53.144;8.208;2022-11-13T17:01:34;16.25;;;11.15;;
29162;SDS011;20331;53.144;8.208;2022-11-13T17:11:56;17.03;;;11.30;;
29162;SDS011;20331;53.144;8.208;2022-11-13T17:22:17;22.73;;;13.07;;
29162;SDS011;20331;53.144;8.208;2022-11-13T17:32:39;20.57;;;11.90;;
29162;SDS011;20331;53.144;8.208;2022-11-13T17:43:00;21.83;;;12.73;;
29162;SDS011;20331;53.144;8.208;2022-11-13T17:53:22;23.97;;;12.60;;
29162;SDS011;20331;53.144;8.208;2022-11-13T18:03:45;27.13;;;13.98;;
29162;SDS011;20331;53.144;8.208;2022-11-13T18:14:07;29.80;;;15.32;;
29162;SDS011;20331;53.144;8.208;2022-11-13T18:24:29;32.47;;;16.03;;
29162;SDS011;20331;53.144;8.208;2022-11-13T18:34:50;33.70;;;16.63;;
29162;SDS011;20331;53.144;8.208;2022-11-13T18:45:12;35.40;;;17.10;;
29162;SDS011;20331;53.144;8.208;2022-11-13T18:55:36;33.25;;;16.48;;
29162;SDS011;20331;53.144;8.208;2022-11-13T19:05:58;28.90;;;15.03;;
29162;SDS011;20331;53.144;8.208;2022-11-13T19:16:21;22.63;;;13.37;;
29162;SDS011;20331;53.144;8.208;2022-11-13T19:26:44;24.02;;;13.52;;
29162;SDS011;20331;53.144;8.208;2022-11-13T19:37:06;23.57;;;12.60;;
29162;SDS011;20331;53.144;8.208;2022-11-13T19:47:28;28.40;;;13.73;;
29162;SDS011;20331;53.144;8.208;2022-11-13T19:57:50;20.58;;;12.23;;
29162;SDS011;20331;53.144;8.208;2022-11-13T20:08:11;18.87;;;10.57;;
29162;SDS011;20331;53.144;8.208;2022-11-13T20:18:33;23.27;;;11.88;;
29162;SDS011;20331;53.144;8.208;2022-11-13T20:28:56;22.38;;;11.68;;
29162;SDS011;20331;53.144;8.208;2022-11-13T20:39:17;20.57;;;11.37;;
29162;SDS011;20331;53.144;8.208;2022-11-13T20:49:39;23.37;;;12.70;;
29162;SDS011;20331;53.144;8.208;2022-11-13T21:00:01;27.90;;;14.13;;
29162;SDS011;20331;53.144;8.208;2022-11-13T21:10:22;27.65;;;14.30;;
29162;SDS011;20331;53.144;8.208;2022-11-13T21:20:44;30.20;;;15.23;;
29162;SDS011;20331;53.144;8.208;2022-11-13T21:41:30;30.73;;;15.90;;
29162;SDS011;20331;53.144;8.208;2022-11-13T21:51:51;29.43;;;17.33;;
29162;SDS011;20331;53.144;8.208;2022-11-13T22:02:13;34.40;;;18.97;;
29162;SDS011;20331;53.144;8.208;2022-11-13T22:12:34;34.50;;;20.20;;
29162;SDS011;20331;53.144;8.208;2022-11-13T22:22:56;35.00;;;18.87;;
29162;SDS011;20331;53.144;8.208;2022-11-13T22:33:17;32.90;;;19.70;;
29162;SDS011;20331;53.144;8.208;2022-11-13T22:43:39;33.73;;;18.83;;
29162;SDS011;20331;53.144;8.208;2022-11-13T22:54:03;37.55;;;18.80;;
29162;SDS011;20331;53.144;8.208;2022-11-13T23:04:29;32.60;;;19.58;;
29162;SDS011;20331;53.144;8.208;2022-11-13T23:14:50;33.87;;;19.73;;
29162;SDS011;20331;53.144;8.208;2022-11-13T23:25:12;37.07;;;20.30;;
29162;SDS011;20331;53.144;8.208;2022-11-13T23:35:33;35.97;;;20.30;;
29162;SDS011;20331;53.144;8.208;2022-11-13T23:45:55;34.43;;;19.10;;
29162;SDS011;20331;53.144;8.208;2022-11-13T23:56:16;36.10;;;20.23;;
